CDT,Max TemperatureF,Mean TemperatureF,Min TemperatureF,Max Dew PointF,MeanDew PointF,Min DewpointF,Max Humidity, Mean Humidity, Min Humidity, Max Sea Level PressureIn, Mean Sea Level PressureIn, Min Sea Level PressureIn, Max VisibilityMiles, Mean VisibilityMiles, Min VisibilityMiles, Max Wind SpeedMPH, Mean Wind SpeedMPH, Max Gust SpeedMPH,PrecipitationIn, CloudCover, Events, WindDirDegrees
2012-10-1,72,58,44,52,44,38,85,60,35,30.02,29.97,29.90,10,10,7,22,6,30,0.00,1,,317
2012-10-2,75,54,33,39,32,26,94,51,17,30.01,29.95,29.86,10,10,7,8,4,,0.00,0,,235
2012-10-3,82,63,44,44,36,29,71,40,18,29.97,29.85,29.75,10,10,10,21,6,29,0.00,0,,162
2012-10-4,57,50,40,45,36,32,88,62,40,30.33,30.21,29.97,10,10,2,23,16,36,0.15,3,Rain-Thunderstorm,319
2012-10-5,53,42,32,32,28,23,92,66,32,30.36,30.31,30.26,10,10,7,15,6,20,0.00,2,,299
2012-10-6,48,38,28,27,25,22,81,61,42,30.39,30.33,30.30,10,10,10,16,8,22,0.00,2,,317
2012-10-7,57,39,21,32,26,20,93,61,30,30.30,30.16,30.00,10,10,10,21,6,28,0.00,0,,244
2012-10-8,74,58,41,36,33,30,79,48,20,29.99,29.87,29.75,10,10,10,21,11,32,0.00,0,,201
2012-10-9,57,46,34,45,32,22,88,56,28,30.15,29.96,29.78,10,10,10,22,7,34,0.00,1,,319
2012-10-10,65,45,25,31,27,22,88,54,27,30.24,30.13,30.03,10,10,10,14,5,20,0.00,0,,226
2012-10-11,63,52,41,35,32,28,61,47,33,30.36,30.12,29.99,10,10,10,17,10,25,0.01,0,,351
2012-10-12,55,44,33,43,29,21,70,53,29,30.38,30.24,30.00,10,10,10,18,7,24,0.00,4,,104
2012-10-13,76,64,51,65,58,46,100,86,63,29.97,29.74,29.61,10,8,2,16,8,23,0.45,6,Rain-Thunderstorm,165
2012-10-14,67,56,45,58,44,38,91,65,34,29.99,29.87,29.63,10,10,7,25,12,33,0.20,1,Rain-Thunderstorm,316
2012-10-15,76,56,37,49,44,37,99,64,31,29.99,29.90,29.74,10,10,10,13,4,17,0.00,0,,143
2012-10-16,79,65,51,50,47,44,89,56,29,29.72,29.54,29.39,10,10,10,17,9,25,0.00,0,,212
2012-10-17,68,59,50,52,37,21,89,47,25,29.60,29.49,29.32,10,10,7,34,17,46,0.02,3,Rain,277
2012-10-18,51,48,45,43,33,23,92,60,35,29.65,29.56,29.51,10,10,5,45,27,54,0.09,6,Rain,288
2012-10-19,49,43,38,42,41,38,100,86,76,29.83,29.76,29.64,10,10,10,31,21,44,0.02,7,Rain,315
2012-10-20,66,50,34,45,40,34,100,75,38,29.82,29.76,29.68,10,9,0,15,4,21,0.00,0,Fog,128
2012-10-21,79,64,48,64,52,43,87,68,51,29.80,29.74,29.69,10,10,7,12,8,,0.00,2,,129
2012-10-22,63,58,53,56,53,50,98,84,63,29.84,29.80,29.77,10,8,2,10,6,,0.00,8,Rain-Thunderstorm,353
2012-10-23,71,61,49,61,56,50,100,92,71,29.79,29.74,29.66,10,5,0,10,4,,0.00,6,Fog,205
2012-10-24,56,52,46,56,51,40,100,97,76,29.81,29.77,29.75,10,4,0,15,6,22,0.00,8,Fog-Rain-Thunderstorm,355
2012-10-25,45,39,32,41,34,28,98,85,73,30.35,30.06,29.74,10,9,2,25,17,34,0.59,8,Rain-Thunderstorm,324
2012-10-26,42,36,30,30,28,26,93,71,55,30.51,30.44,30.33,10,10,10,13,8,18,0.00,7,,310
2012-10-27,45,36,26,32,28,25,98,73,52,30.42,30.33,30.24,10,10,10,10,2,,0.00,2,,150
2012-10-28,53,43,33,32,31,30,86,63,44,30.31,30.24,30.18,10,10,10,18,8,25,0.00,4,,140
2012-10-29,59,50,42,34,32,31,66,54,36,30.21,30.15,30.08,10,10,10,18,14,25,0.00,3,,136
2012-10-30,55,45,36,32,31,28,79,62,37,30.10,30.06,30.03,10,10,10,12,7,,0.00,3,Rain,96
2012-10-31,60,45,30,39,32,27,90,67,36,30.07,30.03,29.98,10,10,5,8,1,,0.00,1,,185